createdAt,value
2023-02-07T00:02:19.457Z,72.13
2023-02-07T00:04:50.373Z,72.19
2023-02-07T00:07:21.218Z,72.22
2023-02-07T00:09:52.119Z,72.66
2023-02-07T00:12:22.796Z,72.64
2023-02-07T00:14:53.452Z,72.44
2023-02-07T00:17:24.319Z,72.11
2023-02-07T00:19:54.964Z,71.96
2023-02-07T00:22:25.652Z,71.97
2023-02-07T00:24:56.722Z,71.86
2023-02-07T00:27:27.478Z,71.89
2023-02-07T00:29:58.542Z,71.99
2023-02-07T00:32:34.364Z,71.85
2023-02-07T00:35:05.742Z,71.47
2023-02-07T00:37:36.944Z,71.58
2023-02-07T00:40:09.266Z,71.49
2023-02-07T00:42:39.933Z,71.53
2023-02-07T00:45:12.336Z,71.43
2023-02-07T00:47:43.112Z,71.45
2023-02-07T00:50:14.069Z,71.40
2023-02-07T00:52:44.844Z,71.42
2023-02-07T00:55:16.498Z,71.52
2023-02-07T00:57:47.155Z,71.55
2023-02-07T01:00:19.724Z,71.66
2023-02-07T01:02:51.021Z,71.89
2023-02-07T01:05:21.961Z,71.79
2023-02-07T01:07:52.860Z,72.02
2023-02-07T01:10:24.806Z,71.75
2023-02-07T01:12:56.149Z,71.76
2023-02-07T01:15:27.677Z,71.77
2023-02-07T01:17:58.534Z,71.61
2023-02-07T01:20:31.429Z,71.68
2023-02-07T01:23:02.538Z,71.49
2023-02-07T01:25:33.324Z,71.56
2023-02-07T01:28:04.329Z,71.45
2023-02-07T01:30:35.561Z,71.56
2023-02-07T01:33:06.421Z,71.38
2023-02-07T01:35:38.228Z,71.65
2023-02-07T01:38:09.225Z,71.49
2023-02-07T01:40:41.209Z,71.63
2023-02-07T01:43:18.530Z,71.75
2023-02-07T01:45:49.444Z,71.58
2023-02-07T01:48:24.589Z,71.38
2023-02-07T01:50:57.865Z,71.40
2023-02-07T01:53:31.048Z,71.70
2023-02-07T01:56:04.917Z,71.96
2023-02-07T01:58:37.137Z,71.96
2023-02-07T02:01:11.922Z,71.88
2023-02-07T02:03:48.263Z,71.65
2023-02-07T02:06:20.813Z,71.31
2023-02-07T02:08:54.155Z,71.29
2023-02-07T02:11:58.392Z,71.31
2023-02-07T02:14:46.870Z,71.21
2023-02-07T02:17:23.789Z,71.22
2023-02-07T02:20:25.968Z,71.41
2023-02-07T02:23:04.740Z,71.04
2023-02-07T02:26:12.287Z,71.02
2023-02-07T02:29:10.632Z,71.14
2023-02-07T02:32:08.118Z,71.48
2023-02-07T02:34:46.842Z,71.42
2023-02-07T02:37:24.929Z,71.26
2023-02-07T02:40:03.528Z,71.00
2023-02-07T02:42:41.260Z,71.13
2023-02-07T02:45:17.896Z,71.36
2023-02-07T02:47:51.933Z,71.54
2023-02-07T02:50:26.291Z,71.81
2023-02-07T02:52:57.045Z,71.84
2023-02-07T02:55:47.779Z,71.47
2023-02-07T02:58:27.505Z,71.60
2023-02-07T03:01:08.384Z,71.40
2023-02-07T03:03:56.022Z,71.50
2023-02-07T03:06:38.780Z,71.59
2023-02-07T03:09:25.646Z,71.34
2023-02-07T03:12:00.646Z,71.35
2023-02-07T03:14:37.962Z,71.19
2023-02-07T03:17:19.613Z,71.10
2023-02-07T03:19:56.404Z,71.09
2023-02-07T03:22:30.275Z,70.99
2023-02-07T03:25:05.074Z,70.90
2023-02-07T03:27:38.176Z,70.86
2023-02-07T03:30:13.918Z,71.10
2023-02-07T03:32:48.304Z,71.12
2023-02-07T03:35:25.271Z,71.38
2023-02-07T03:37:58.499Z,71.50
2023-02-07T03:40:32.008Z,71.54
2023-02-07T03:43:07.752Z,71.33
2023-02-07T03:45:38.810Z,71.23
2023-02-07T03:48:10.137Z,71.08
2023-02-07T03:50:41.118Z,71.01
2023-02-07T03:53:11.818Z,71.15
2023-02-07T03:55:42.634Z,70.96
2023-02-07T03:58:13.458Z,71.12
2023-02-07T04:00:44.405Z,70.94
2023-02-07T04:03:15.282Z,70.97
2023-02-07T04:05:47.305Z,71.09
2023-02-07T04:08:18.309Z,71.16
2023-02-07T04:11:00.084Z,71.42
2023-02-07T04:13:31.088Z,71.31
2023-02-07T04:16:02.055Z,71.47
2023-02-07T04:18:32.794Z,71.48
2023-02-07T04:21:08.531Z,71.71
2023-02-07T04:23:39.241Z,71.98
2023-02-07T04:26:10.045Z,71.92
2023-02-07T04:28:40.906Z,71.83
2023-02-07T04:31:11.709Z,71.98
2023-02-07T04:33:42.403Z,71.91
2023-02-07T04:36:13.282Z,72.00
2023-02-07T04:38:44.789Z,71.85
2023-02-07T04:41:15.673Z,71.81
2023-02-07T04:43:46.738Z,71.87
2023-02-07T04:46:17.521Z,71.68
2023-02-07T04:48:49.329Z,71.59
2023-02-07T04:51:19.992Z,71.48
2023-02-07T04:53:50.731Z,71.51
2023-02-07T04:56:21.570Z,71.35
2023-02-07T04:58:52.358Z,71.56
2023-02-07T05:01:23.109Z,71.66
2023-02-07T05:03:53.828Z,71.61
2023-02-07T05:06:24.577Z,71.47
2023-02-07T05:08:55.267Z,71.56
2023-02-07T05:11:26.090Z,71.48
2023-02-07T05:13:56.875Z,71.40
2023-02-07T05:16:27.717Z,71.20
2023-02-07T05:18:58.534Z,71.39
2023-02-07T05:21:29.330Z,71.34
2023-02-07T05:24:00.152Z,71.32
2023-02-07T05:26:30.886Z,71.35
2023-02-07T05:29:01.628Z,71.35
2023-02-07T05:31:46.483Z,71.55
2023-02-07T05:34:17.228Z,72.10
2023-02-07T05:36:47.958Z,72.29
2023-02-07T05:39:18.705Z,72.65
2023-02-07T05:41:49.462Z,72.98
2023-02-07T05:44:20.563Z,72.66
2023-02-07T05:46:52.707Z,72.31
2023-02-07T05:49:24.218Z,72.80
2023-02-07T05:51:54.963Z,72.55
2023-02-07T05:54:25.816Z,72.55
2023-02-07T05:56:56.606Z,72.65
2023-02-07T05:59:27.592Z,72.84
2023-02-07T06:01:58.346Z,72.46
2023-02-07T06:04:29.345Z,72.36
2023-02-07T06:07:00.013Z,72.26
2023-02-07T06:09:30.852Z,72.30
2023-02-07T06:12:03.129Z,72.45
2023-02-07T06:14:35.842Z,72.49
2023-02-07T06:17:06.599Z,72.54
2023-02-07T06:19:37.436Z,72.63
2023-02-07T06:22:08.335Z,72.91
2023-02-07T06:24:39.057Z,72.82
2023-02-07T06:27:09.918Z,73.01
2023-02-07T06:29:40.737Z,73.00
2023-02-07T06:32:11.459Z,72.91
2023-02-07T06:34:42.253Z,72.97
2023-02-07T06:37:13.376Z,72.77
2023-02-07T06:39:44.238Z,72.69
2023-02-07T06:42:14.993Z,79.26
2023-02-07T06:44:45.837Z,84.76
2023-02-07T06:47:16.613Z,80.64
2023-02-07T06:49:47.576Z,78.63
2023-02-07T06:52:19.748Z,77.59
2023-02-07T06:54:50.368Z,79.52
2023-02-07T06:57:20.981Z,75.46
2023-02-07T06:59:51.759Z,72.57
2023-02-07T07:02:22.726Z,69.06
2023-02-07T07:04:53.692Z,66.59
2023-02-07T07:07:24.766Z,66.89
2023-02-07T07:09:55.502Z,67.01
2023-02-07T07:12:26.372Z,67.56
2023-02-07T07:14:57.028Z,67.76
2023-02-07T07:17:27.882Z,68.10
2023-02-07T07:19:58.822Z,68.30
2023-02-07T07:22:30.176Z,68.49
2023-02-07T07:25:00.919Z,68.34
2023-02-07T07:27:31.683Z,68.14
2023-02-07T07:30:02.439Z,68.43
2023-02-07T07:32:35.015Z,68.76
2023-02-07T07:35:06.540Z,68.66
2023-02-07T07:37:37.247Z,68.61
2023-02-07T07:40:09.782Z,68.45
2023-02-07T07:42:40.557Z,67.98
2023-02-07T07:45:22.329Z,67.39
2023-02-07T07:47:53.123Z,67.32
2023-02-07T07:50:24.095Z,67.08
2023-02-07T07:52:54.892Z,66.29
2023-02-07T07:55:25.677Z,66.36
2023-02-07T07:57:57.127Z,65.85
2023-02-07T08:00:28.248Z,65.71
2023-02-07T08:02:59.003Z,65.15
2023-02-07T08:05:29.695Z,65.49
2023-02-07T08:08:01.647Z,64.94
2023-02-07T08:10:32.491Z,64.69
2023-02-07T08:13:03.234Z,64.67
2023-02-07T08:15:34.144Z,63.79
2023-02-07T08:18:05.091Z,63.54
2023-02-07T08:20:35.913Z,63.04
2023-02-07T08:23:06.777Z,62.53
2023-02-07T08:25:37.545Z,61.48
2023-02-07T08:28:08.356Z,61.75
2023-02-07T08:30:39.400Z,62.18
2023-02-07T08:33:11.015Z,61.64
2023-02-07T08:35:41.837Z,62.26
2023-02-07T08:38:12.619Z,62.36
2023-02-07T08:40:43.611Z,61.37
2023-02-07T08:43:15.532Z,60.64
2023-02-07T08:45:49.839Z,60.63
2023-02-07T08:48:21.013Z,61.77
2023-02-07T08:50:51.741Z,61.62
2023-02-07T08:53:22.453Z,60.58
2023-02-07T08:55:53.277Z,60.04
2023-02-07T08:58:24.178Z,59.56
2023-02-07T09:00:54.998Z,58.88
2023-02-07T09:03:25.826Z,58.87
2023-02-07T09:06:01.359Z,58.02
2023-02-07T09:08:32.338Z,58.19
2023-02-07T09:11:09.072Z,58.82
2023-02-07T09:13:40.272Z,58.80
2023-02-07T09:16:11.138Z,58.48
2023-02-07T09:18:41.898Z,59.27
2023-02-07T09:21:12.522Z,58.56
2023-02-07T09:23:43.674Z,59.07
2023-02-07T09:26:19.502Z,58.71
2023-02-07T09:28:50.203Z,58.49
2023-02-07T09:31:21.776Z,57.95
2023-02-07T09:33:52.941Z,57.48
2023-02-07T09:36:26.049Z,57.42
2023-02-07T09:38:57.815Z,56.92
2023-02-07T09:41:37.673Z,55.83
2023-02-07T09:44:15.464Z,56.41
2023-02-07T09:46:52.555Z,56.42
2023-02-07T09:49:38.371Z,55.90
2023-02-07T09:52:15.923Z,55.11
2023-02-07T09:54:50.589Z,54.99
2023-02-07T09:57:26.759Z,54.76
2023-02-07T10:00:02.737Z,54.93
2023-02-07T10:02:58.101Z,54.78
2023-02-07T10:05:35.798Z,54.59
2023-02-07T10:08:07.256Z,54.79
2023-02-07T10:10:45.376Z,54.80
2023-02-07T10:13:44.020Z,53.93
2023-02-07T10:16:30.857Z,54.13
2023-02-07T10:19:07.000Z,54.69
2023-02-07T10:21:46.863Z,54.54
2023-02-07T10:24:33.856Z,55.30
2023-02-07T10:27:10.929Z,55.35
2023-02-07T10:29:57.095Z,55.04
2023-02-07T10:32:34.636Z,54.63
2023-02-07T10:35:17.957Z,54.02
2023-02-07T10:37:52.286Z,54.58
2023-02-07T10:40:27.264Z,54.61
2023-02-07T10:43:03.336Z,55.12
2023-02-07T10:45:34.502Z,55.59
2023-02-07T10:48:10.868Z,55.15
2023-02-07T10:50:41.824Z,55.24
2023-02-07T10:53:12.812Z,55.82
2023-02-07T10:55:46.801Z,55.49
2023-02-07T10:58:24.114Z,54.90
2023-02-07T11:00:57.059Z,54.24
2023-02-07T11:03:28.243Z,55.17
2023-02-07T11:06:02.863Z,55.61
2023-02-07T11:08:36.044Z,56.06
2023-02-07T11:11:27.284Z,55.14
2023-02-07T11:14:03.206Z,55.10
2023-02-07T11:16:35.129Z,56.11
2023-02-07T11:19:08.335Z,55.92
2023-02-07T11:21:44.703Z,55.59
2023-02-07T11:24:21.165Z,56.44
2023-02-07T11:26:57.554Z,56.13
2023-02-07T11:29:30.217Z,56.34
2023-02-07T11:32:03.535Z,56.18
2023-02-07T11:34:48.835Z,56.05
2023-02-07T11:37:28.943Z,56.09
2023-02-07T11:40:18.490Z,56.30
2023-02-07T11:42:51.093Z,55.73
2023-02-07T11:45:25.800Z,55.57
2023-02-07T11:48:00.129Z,55.97
2023-02-07T11:50:33.498Z,56.39
2023-02-07T11:53:04.718Z,56.78
2023-02-07T11:55:37.892Z,56.91
2023-02-07T11:58:19.502Z,56.78
2023-02-07T12:00:50.829Z,56.91
2023-02-07T12:03:26.171Z,56.48
2023-02-07T12:06:03.057Z,56.91
2023-02-07T12:08:36.643Z,57.40
2023-02-07T12:11:13.675Z,57.65
2023-02-07T12:13:50.350Z,57.59
2023-02-07T12:16:25.748Z,57.32
2023-02-07T12:19:04.740Z,57.35
2023-02-07T12:21:43.734Z,57.42
2023-02-07T12:24:21.010Z,57.61
2023-02-07T12:26:57.177Z,57.71
2023-02-07T12:29:39.701Z,57.89
2023-02-07T12:32:16.430Z,57.90
2023-02-07T12:34:53.669Z,57.88
2023-02-07T12:37:29.598Z,58.30
2023-02-07T12:40:11.446Z,58.17
2023-02-07T12:42:45.492Z,58.34
2023-02-07T12:45:24.276Z,58.40
2023-02-07T12:47:59.840Z,58.25
2023-02-07T12:50:50.086Z,58.40
2023-02-07T12:53:38.188Z,58.81
2023-02-07T12:56:21.492Z,58.78
2023-02-07T12:59:00.854Z,58.74
2023-02-07T13:01:41.124Z,59.17
2023-02-07T13:04:38.852Z,58.58
2023-02-07T13:07:21.929Z,59.33
2023-02-07T13:10:02.126Z,58.81
2023-02-07T13:12:37.912Z,58.90
2023-02-07T13:15:17.929Z,58.41
2023-02-07T13:17:55.933Z,58.67
2023-02-07T13:20:42.361Z,58.76
2023-02-07T13:23:19.503Z,59.07
2023-02-07T13:25:53.221Z,58.86
2023-02-07T13:28:30.396Z,59.03
2023-02-07T13:31:02.818Z,59.44
2023-02-07T13:33:37.976Z,59.10
2023-02-07T13:36:14.523Z,59.22
2023-02-07T13:39:00.043Z,59.16
2023-02-07T13:41:36.166Z,59.18
2023-02-07T13:44:21.028Z,59.38
2023-02-07T13:47:15.572Z,59.37
2023-02-07T13:49:52.409Z,59.33
2023-02-07T13:52:30.999Z,59.47
2023-02-07T13:55:11.453Z,60.00
2023-02-07T13:58:02.311Z,59.63
2023-02-07T14:00:37.569Z,59.53
2023-02-07T14:03:20.641Z,59.91
2023-02-07T14:05:52.401Z,59.74
2023-02-07T14:08:26.434Z,60.14
2023-02-07T14:10:58.981Z,60.41
2023-02-07T14:13:35.215Z,60.45
2023-02-07T14:16:11.082Z,60.34
2023-02-07T14:18:48.133Z,60.41
2023-02-07T14:21:41.034Z,60.49
2023-02-07T14:24:33.317Z,60.87
2023-02-07T14:27:28.033Z,61.35
2023-02-07T14:30:20.206Z,61.86
2023-02-07T14:33:13.262Z,62.10
2023-02-07T14:36:22.504Z,61.74
2023-02-07T14:39:24.259Z,61.76
2023-02-07T14:41:55.473Z,62.20
2023-02-07T14:44:34.040Z,62.17
2023-02-07T14:47:06.902Z,62.58
2023-02-07T14:49:42.561Z,62.59
2023-02-07T14:52:16.422Z,62.94
2023-02-07T14:54:52.012Z,63.28
2023-02-07T14:57:34.164Z,63.16
2023-02-07T15:00:28.807Z,63.10
2023-02-07T15:03:03.019Z,63.25
2023-02-07T15:05:35.615Z,63.15
2023-02-07T15:08:17.500Z,63.56
2023-02-07T15:10:56.786Z,63.51
2023-02-07T15:13:31.182Z,63.71
2023-02-07T15:16:06.066Z,63.64
2023-02-07T15:18:41.076Z,64.04
2023-02-07T15:21:18.227Z,63.96
2023-02-07T15:23:54.440Z,64.16
2023-02-07T15:26:25.383Z,64.19
2023-02-07T15:29:02.087Z,64.19
2023-02-07T15:31:38.558Z,64.16
2023-02-07T15:34:16.693Z,64.35
2023-02-07T15:36:48.947Z,64.58
2023-02-07T15:39:23.070Z,64.90
2023-02-07T15:41:55.764Z,64.85
2023-02-07T15:44:30.533Z,65.11
2023-02-07T15:47:04.724Z,64.88
2023-02-07T15:49:39.728Z,64.70
2023-02-07T15:52:17.602Z,64.70
2023-02-07T15:54:51.093Z,65.02
2023-02-07T15:57:26.486Z,64.68
2023-02-07T16:00:02.597Z,64.68
2023-02-07T16:03:00.145Z,64.77
2023-02-07T16:05:34.066Z,64.69
2023-02-07T16:08:06.681Z,64.67
2023-02-07T16:10:40.043Z,64.50
2023-02-07T16:13:21.559Z,64.70
2023-02-07T16:16:00.285Z,64.62
2023-02-07T16:18:42.557Z,64.88
2023-02-07T16:21:18.622Z,64.65
2023-02-07T16:23:52.109Z,64.94
2023-02-07T16:26:27.742Z,64.80
2023-02-07T16:28:59.075Z,64.95
2023-02-07T16:31:30.158Z,65.13
2023-02-07T16:34:00.926Z,65.15
2023-02-07T16:36:32.198Z,65.26
2023-02-07T16:39:03.025Z,65.19
2023-02-07T16:41:36.341Z,65.30
2023-02-07T16:44:06.844Z,65.36
2023-02-07T16:46:38.596Z,65.19
2023-02-07T16:49:15.660Z,65.28
2023-02-07T16:51:46.845Z,65.22
2023-02-07T16:54:18.026Z,65.28
2023-02-07T16:56:51.519Z,65.34
2023-02-07T16:59:23.546Z,65.56
2023-02-07T17:01:55.238Z,65.74
2023-02-07T17:04:25.915Z,65.71
2023-02-07T17:06:56.639Z,66.09
2023-02-07T17:09:28.565Z,65.89
2023-02-07T17:11:59.169Z,66.14
2023-02-07T17:14:29.835Z,66.01
2023-02-07T17:17:00.606Z,66.21
2023-02-07T17:19:31.455Z,66.19
2023-02-07T17:22:02.255Z,66.16
2023-02-07T17:24:32.916Z,66.62
2023-02-07T17:27:03.622Z,66.53
2023-02-07T17:29:34.356Z,66.69
2023-02-07T17:32:05.307Z,67.02
2023-02-07T17:34:36.210Z,67.17
2023-02-07T17:37:06.837Z,67.06
2023-02-07T17:39:37.553Z,67.15
2023-02-07T17:42:08.344Z,67.29
2023-02-07T17:44:40.391Z,67.24
2023-02-07T17:47:12.046Z,67.22
2023-02-07T17:49:42.786Z,67.39
2023-02-07T17:52:14.724Z,67.45
2023-02-07T17:54:46.094Z,67.54
2023-02-07T17:57:16.866Z,67.49
2023-02-07T17:59:47.496Z,67.80
2023-02-07T18:02:18.238Z,68.09
2023-02-07T18:04:51.532Z,67.98
2023-02-07T18:07:22.296Z,68.24
2023-02-07T18:09:52.998Z,67.90
2023-02-07T18:12:23.788Z,68.16
2023-02-07T18:14:56.531Z,67.95
2023-02-07T18:17:27.673Z,68.33
2023-02-07T18:19:58.299Z,68.38
2023-02-07T18:22:29.073Z,68.44
2023-02-07T18:25:00.087Z,68.48
2023-02-07T18:27:31.636Z,68.47
2023-02-07T18:30:02.394Z,68.70
2023-02-07T18:32:33.537Z,68.97
2023-02-07T18:35:05.846Z,68.89
2023-02-07T18:37:37.038Z,69.23
2023-02-07T18:40:10.309Z,69.43
2023-02-07T18:42:41.456Z,69.37
2023-02-07T18:45:14.504Z,69.10
2023-02-07T18:47:45.719Z,69.63
2023-02-07T18:50:19.526Z,69.60
2023-02-07T18:52:50.838Z,69.63
2023-02-07T18:55:21.567Z,70.08
2023-02-07T18:57:55.170Z,70.47
2023-02-07T19:00:27.554Z,70.57
2023-02-07T19:02:58.183Z,70.65
2023-02-07T19:05:28.977Z,70.44
2023-02-07T19:07:59.911Z,70.46
2023-02-07T19:10:30.755Z,70.98
2023-02-07T19:13:01.573Z,70.55
2023-02-07T19:15:32.333Z,70.43
2023-02-07T19:18:05.483Z,70.72
2023-02-07T19:20:36.132Z,70.60
2023-02-07T19:23:07.354Z,70.56
2023-02-07T19:25:38.394Z,70.68
2023-02-07T19:28:09.411Z,70.37
2023-02-07T19:30:43.631Z,70.15
2023-02-07T19:33:14.609Z,70.15
2023-02-07T19:35:45.368Z,70.07
2023-02-07T19:38:16.857Z,70.62
2023-02-07T19:40:55.524Z,70.76
2023-02-07T19:43:26.361Z,70.65
2023-02-07T19:45:57.057Z,71.26
2023-02-07T19:48:27.895Z,71.37
2023-02-07T19:51:03.209Z,71.37
2023-02-07T19:53:34.848Z,71.34
2023-02-07T19:56:09.532Z,71.58
2023-02-07T19:58:42.255Z,71.45
2023-02-07T20:01:13.642Z,71.77
2023-02-07T20:03:46.206Z,71.37
2023-02-07T20:06:17.329Z,71.60
2023-02-07T20:08:48.084Z,71.25
2023-02-07T20:11:21.008Z,71.16
2023-02-07T20:13:54.036Z,71.07
2023-02-07T20:16:27.590Z,70.78
2023-02-07T20:18:58.556Z,71.17
2023-02-07T20:21:33.553Z,71.20
2023-02-07T20:24:05.061Z,71.37
2023-02-07T20:26:39.006Z,71.51
2023-02-07T20:29:13.152Z,71.82
2023-02-07T20:31:45.096Z,71.91
2023-02-07T20:34:16.588Z,72.22
2023-02-07T20:36:47.685Z,71.63
2023-02-07T20:39:20.897Z,71.79
2023-02-07T20:41:52.472Z,72.08
2023-02-07T20:44:26.509Z,72.27
2023-02-07T20:46:59.561Z,72.22
2023-02-07T20:49:32.160Z,72.36
2023-02-07T20:52:03.342Z,72.60
2023-02-07T20:54:34.107Z,72.31
2023-02-07T20:57:04.942Z,72.55
2023-02-07T20:59:36.194Z,72.52
2023-02-07T21:02:07.213Z,72.43
2023-02-07T21:04:39.366Z,72.37
2023-02-07T21:07:11.122Z,72.71
2023-02-07T21:09:42.329Z,72.59
2023-02-07T21:12:13.231Z,72.24
2023-02-07T21:14:44.233Z,72.33
2023-02-07T21:17:15.408Z,72.33
2023-02-07T21:19:46.369Z,72.12
2023-02-07T21:22:17.206Z,72.28
2023-02-07T21:24:48.523Z,72.44
2023-02-07T21:27:19.291Z,72.25
2023-02-07T21:29:50.342Z,72.11
2023-02-07T21:32:21.184Z,72.04
2023-02-07T21:34:51.932Z,72.06
2023-02-07T21:37:24.583Z,71.71
2023-02-07T21:39:55.897Z,71.59
2023-02-07T21:42:26.732Z,71.53
2023-02-07T21:44:57.469Z,71.24
2023-02-07T21:47:29.494Z,71.41
2023-02-07T21:50:00.263Z,71.28
2023-02-07T21:52:31.873Z,71.56
2023-02-07T21:55:02.760Z,72.21
2023-02-07T21:57:33.423Z,72.47
2023-02-07T22:00:04.534Z,72.45
2023-02-07T22:02:55.101Z,72.20
2023-02-07T22:05:26.090Z,71.87
2023-02-07T22:07:56.866Z,71.83
2023-02-07T22:10:27.604Z,71.61
2023-02-07T22:12:59.754Z,71.99
2023-02-07T22:15:31.676Z,71.90
2023-02-07T22:18:03.413Z,72.14
2023-02-07T22:20:34.630Z,72.03
2023-02-07T22:23:05.399Z,71.93
2023-02-07T22:25:39.585Z,71.92
2023-02-07T22:28:10.932Z,72.49
2023-02-07T22:30:43.090Z,72.02
2023-02-07T22:33:14.024Z,71.93
2023-02-07T22:35:45.647Z,72.19
2023-02-07T22:38:17.311Z,72.76
2023-02-07T22:40:47.957Z,73.35
2023-02-07T22:43:19.380Z,73.06
2023-02-07T22:45:50.197Z,73.28
2023-02-07T22:48:21.253Z,73.29
2023-02-07T22:50:52.030Z,73.27
2023-02-07T22:53:22.676Z,73.36
2023-02-07T22:55:53.325Z,73.81
2023-02-07T22:58:24.194Z,73.44
2023-02-07T23:00:54.929Z,73.63
2023-02-07T23:03:25.615Z,73.33
2023-02-07T23:05:56.289Z,73.52
2023-02-07T23:08:27.173Z,73.80
2023-02-07T23:10:57.979Z,73.85
2023-02-07T23:13:28.969Z,74.12
2023-02-07T23:15:59.766Z,74.47
2023-02-07T23:18:30.560Z,74.08
2023-02-07T23:21:01.243Z,74.20
2023-02-07T23:23:31.943Z,74.13
2023-02-07T23:26:02.780Z,73.99
2023-02-07T23:28:33.574Z,73.70
2023-02-07T23:31:04.468Z,73.78
2023-02-07T23:33:36.002Z,73.74
2023-02-07T23:36:08.477Z,73.77
2023-02-07T23:38:39.527Z,73.60
2023-02-07T23:41:10.352Z,73.41
2023-02-07T23:43:41.624Z,73.60
2023-02-07T23:46:13.700Z,73.91
2023-02-07T23:48:44.567Z,73.98
2023-02-07T23:51:16.186Z,74.08
2023-02-07T23:53:47.071Z,74.30
2023-02-07T23:56:21.190Z,73.89
2023-02-07T23:58:53.018Z,73.80
